createdAt,value
2022-08-19T00:00:05.920Z,84.16
2022-08-19T00:05:37.426Z,84.27
2022-08-19T00:11:24.439Z,84.56
2022-08-19T00:16:47.250Z,85.01
2022-08-19T00:22:19.765Z,85.08
2022-08-19T00:27:50.922Z,84.04
2022-08-19T00:33:22.413Z,84.1
2022-08-19T00:38:54.269Z,84.93
2022-08-19T00:44:27.488Z,85.14
2022-08-19T00:49:57.869Z,85.08
2022-08-19T00:55:29.354Z,85.35
2022-08-19T01:01:01.092Z,85.01
2022-08-19T01:06:32.957Z,84.88
2022-08-19T01:12:04.525Z,84.56
2022-08-19T01:17:40.593Z,85.08
2022-08-19T01:23:12.340Z,85.02
2022-08-19T01:28:44.105Z,84.25
2022-08-19T01:34:15.817Z,84.63
2022-08-19T01:39:47.650Z,85.07
2022-08-19T01:45:19.241Z,86.79
2022-08-19T01:50:50.921Z,86.66
2022-08-19T01:56:22.681Z,86.0
2022-08-19T02:01:54.446Z,86.42
2022-08-19T02:07:26.153Z,88.02
2022-08-19T02:12:57.921Z,86.9
2022-08-19T02:18:33.910Z,87.22
2022-08-19T02:24:05.641Z,88.05
2022-08-19T02:29:37.449Z,88.91
2022-08-19T02:35:13.006Z,89.05
2022-08-19T02:40:40.821Z,88.93
2022-08-19T02:46:12.544Z,88.61
2022-08-19T02:51:44.301Z,89.22
2022-08-19T02:57:16.024Z,89.74
2022-08-19T03:02:47.863Z,89.16
2022-08-19T03:08:21.861Z,90.04
2022-08-19T03:13:51.177Z,91.88
2022-08-19T03:19:27.281Z,91.54
2022-08-19T03:24:59.102Z,91.41
2022-08-19T03:30:30.674Z,91.45
2022-08-19T03:36:02.397Z,92.49
2022-08-19T03:41:46.622Z,92.49
2022-08-19T03:47:05.874Z,93.91
2022-08-19T03:52:37.555Z,93.21
2022-08-19T03:58:09.249Z,93.43
2022-08-19T04:03:40.994Z,93.04
2022-08-19T04:09:12.746Z,93.38
2022-08-19T04:14:44.434Z,93.14
2022-08-19T04:20:20.649Z,93.81
2022-08-19T04:25:52.294Z,93.39
2022-08-19T04:31:24.137Z,93.6
2022-08-19T04:36:55.767Z,93.23
2022-08-19T04:42:31.488Z,92.63
2022-08-19T04:48:27.991Z,92.81
2022-08-19T04:53:38.386Z,92.44
2022-08-19T04:59:02.626Z,92.33
2022-08-19T05:04:34.339Z,92.49
2022-08-19T05:10:06.215Z,92.84
2022-08-19T05:15:37.826Z,92.95
2022-08-19T05:21:15.917Z,93.57
2022-08-19T05:26:47.652Z,93.68
2022-08-19T05:32:19.484Z,94.29
2022-08-19T05:37:58.943Z,92.9
2022-08-19T05:43:22.820Z,93.07
2022-08-19T05:48:55.102Z,92.25
2022-08-19T05:54:26.209Z,93.04
2022-08-19T05:59:59.347Z,93.28
2022-08-19T06:05:29.718Z,93.12
2022-08-19T06:11:01.520Z,93.29
2022-08-19T06:16:33.146Z,92.88
2022-08-19T06:22:09.246Z,93.08
2022-08-19T06:28:14.409Z,93.75
2022-08-19T06:33:13.066Z,92.79
2022-08-19T06:38:46.198Z,93.1
2022-08-19T06:44:17.322Z,93.59
2022-08-19T06:49:47.834Z,92.95
2022-08-19T06:55:19.726Z,93.49
2022-08-19T07:00:51.482Z,93.53
2022-08-19T07:06:44.702Z,93.24
2022-08-19T07:11:54.775Z,93.32
2022-08-19T07:17:26.504Z,92.86
2022-08-19T07:23:07.783Z,92.27
2022-08-19T07:28:36.390Z,92.0
2022-08-19T07:34:08.210Z,92.25
2022-08-19T07:39:39.924Z,91.65
2022-08-19T07:45:11.513Z,91.98
2022-08-19T07:50:43.172Z,91.4
2022-08-19T07:56:14.926Z,91.38
2022-08-19T08:01:46.883Z,91.81
2022-08-19T08:07:18.373Z,91.61
2022-08-19T08:13:11.130Z,91.67
2022-08-19T08:18:21.906Z,91.87
2022-08-19T08:29:35.310Z,91.22
2022-08-19T08:35:01.293Z,91.85
2022-08-19T08:40:33.085Z,91.55
2022-08-19T08:46:05.501Z,92.11
2022-08-19T08:51:36.602Z,92.05
2022-08-19T08:57:08.254Z,92.45
2022-08-19T09:02:43.615Z,92.62
2022-08-19T09:08:14.039Z,92.41
2022-08-19T09:13:43.474Z,92.13
2022-08-19T09:19:22.713Z,91.98
2022-08-19T09:24:51.294Z,91.67
2022-08-19T09:30:22.998Z,91.01
2022-08-19T09:35:54.730Z,90.25
2022-08-19T09:41:29.002Z,90.96
2022-08-19T09:46:58.221Z,89.99
2022-08-19T09:52:33.106Z,89.98
2022-08-19T09:58:01.649Z,89.82
2022-08-19T10:03:33.286Z,89.73
2022-08-19T10:09:09.317Z,89.61
2022-08-19T10:14:36.757Z,89.71
2022-08-19T10:20:08.513Z,89.44
2022-08-19T10:25:44.621Z,89.11
2022-08-19T10:31:19.773Z,89.05
2022-08-19T10:37:00.721Z,88.42
2022-08-19T10:42:19.807Z,88.09
2022-08-19T10:47:51.561Z,86.07
2022-08-19T10:53:23.501Z,86.14
2022-08-19T10:58:54.916Z,86.33
2022-08-19T11:04:29.846Z,85.6
2022-08-19T11:09:58.345Z,85.42
2022-08-19T11:15:30.120Z,84.25
2022-08-19T11:21:01.941Z,83.46
2022-08-19T11:26:41.984Z,83.05
2022-08-19T11:32:13.670Z,82.17
2022-08-19T11:37:45.389Z,82.14
2022-08-19T11:43:17.145Z,81.34
2022-08-19T11:48:48.853Z,80.98
2022-08-19T11:54:20.521Z,81.3
2022-08-19T11:59:52.298Z,81.06
2022-08-19T12:05:24.028Z,80.2
2022-08-19T12:10:55.719Z,79.69
2022-08-19T12:16:27.480Z,79.44
2022-08-19T12:21:59.233Z,78.83
2022-08-19T12:27:41.832Z,78.62
2022-08-19T12:33:07.055Z,77.59
2022-08-19T12:38:38.776Z,77.07
2022-08-19T12:44:12.514Z,77.11
2022-08-19T12:49:55.856Z,75.81
2022-08-19T12:55:13.990Z,75.72
2022-08-19T13:00:45.845Z,74.86
2022-08-19T13:06:20.545Z,75.88
2022-08-19T13:11:49.165Z,77.99
2022-08-19T13:17:20.853Z,77.35
2022-08-19T13:22:52.553Z,76.55
2022-08-19T13:28:29.608Z,76.54
2022-08-19T13:34:00.413Z,76.68
2022-08-19T13:39:32.208Z,76.83
2022-08-19T13:45:03.976Z,80.2
2022-08-19T13:50:35.573Z,84.43
2022-08-19T13:56:07.285Z,88.27
2022-08-19T14:01:39.032Z,90.11
2022-08-19T14:07:10.768Z,92.22
2022-08-19T14:12:42.517Z,91.04
2022-08-19T14:18:14.229Z,92.64
2022-08-19T14:23:45.962Z,90.56
2022-08-19T14:29:22.050Z,90.68
2022-08-19T14:34:53.775Z,90.73
2022-08-19T14:40:25.349Z,90.28
2022-08-19T14:45:58.160Z,89.5
2022-08-19T14:51:28.930Z,90.23
2022-08-19T14:57:00.677Z,90.71
2022-08-19T15:02:35.639Z,88.91
2022-08-19T15:08:04.141Z,88.34
2022-08-19T15:13:35.930Z,87.4
2022-08-19T15:19:07.565Z,85.39
2022-08-19T15:24:48.501Z,86.69
2022-08-19T15:30:18.186Z,88.36
2022-08-19T15:35:50.137Z,88.19
2022-08-19T15:41:21.861Z,86.42
2022-08-19T15:46:53.550Z,85.17
2022-08-19T15:52:25.313Z,83.47
2022-08-19T15:57:57.133Z,83.94
2022-08-19T16:03:29.376Z,85.95
2022-08-19T16:09:00.550Z,88.47
2022-08-19T16:14:32.266Z,89.08
2022-08-19T16:20:04.066Z,90.91
2022-08-19T16:25:35.800Z,93.23
2022-08-19T16:31:11.826Z,94.4
2022-08-19T16:36:43.650Z,93.66
2022-08-19T16:42:15.273Z,93.98
2022-08-19T16:47:47.009Z,93.5
2022-08-19T16:53:20.008Z,92.88
2022-08-19T16:58:50.547Z,92.89
2022-08-19T17:04:22.254Z,93.83
2022-08-19T17:09:55.458Z,92.86
2022-08-19T17:15:25.711Z,92.24
2022-08-19T17:20:57.434Z,92.28
2022-08-19T17:26:29.107Z,92.64
2022-08-19T17:32:07.294Z,91.37
2022-08-19T17:37:38.938Z,92.33
2022-08-19T17:43:10.673Z,92.57
2022-08-19T17:48:42.474Z,93.3
2022-08-19T17:54:14.157Z,93.31
2022-08-19T17:59:45.893Z,93.94
2022-08-19T18:05:17.663Z,94.56
2022-08-19T18:10:49.424Z,94.44
2022-08-19T18:16:22.983Z,95.03
2022-08-19T18:21:54.715Z,95.18
2022-08-19T18:27:26.477Z,94.98
2022-08-19T18:33:09.125Z,95.02
2022-08-19T18:38:34.209Z,95.25
2022-08-19T18:44:05.906Z,95.1
2022-08-19T18:49:37.666Z,94.71
2022-08-19T18:55:09.392Z,95.2
2022-08-19T19:00:41.074Z,93.67
2022-08-19T19:06:12.818Z,93.61
2022-08-19T19:11:44.538Z,93.26
2022-08-19T19:17:16.289Z,92.15
2022-08-19T19:22:48.166Z,91.6
2022-08-19T19:28:19.782Z,91.78
2022-08-19T19:33:55.893Z,91.69
2022-08-19T19:39:47.176Z,90.6
2022-08-19T19:44:59.327Z,90.38
2022-08-19T19:50:31.037Z,89.68
2022-08-19T19:56:02.798Z,88.8
2022-08-19T20:01:34.767Z,88.64
2022-08-19T20:07:07.865Z,88.96
2022-08-19T20:12:37.968Z,88.65
2022-08-19T20:18:10.304Z,87.17
2022-08-19T20:23:41.402Z,84.53
2022-08-19T20:29:40.402Z,82.4
2022-08-19T20:34:51.173Z,80.52
2022-08-19T20:40:22.977Z,76.84
2022-08-19T20:45:54.658Z,75.33
2022-08-19T20:51:26.358Z,74.97
2022-08-19T20:56:58.141Z,74.02
2022-08-19T21:02:29.824Z,74.18
2022-08-19T21:08:01.665Z,74.48
2022-08-19T21:13:33.251Z,74.57
2022-08-19T21:19:05.054Z,75.29
2022-08-19T21:24:36.700Z,76.14
2022-08-19T21:30:08.415Z,76.49
2022-08-19T21:35:44.554Z,77.0
2022-08-19T21:41:16.507Z,77.46
2022-08-19T21:46:50.796Z,78.68
2022-08-19T21:52:19.778Z,79.12
2022-08-19T21:57:51.506Z,79.82
2022-08-19T22:03:23.258Z,79.72
2022-08-19T22:08:54.954Z,80.03
2022-08-19T22:14:26.654Z,80.5
2022-08-19T22:19:58.617Z,80.75
2022-08-19T22:25:32.429Z,80.86
2022-08-19T22:31:03.761Z,80.16
2022-08-19T22:36:38.266Z,80.89
2022-08-19T22:42:09.891Z,81.17
2022-08-19T22:47:41.655Z,81.2
2022-08-19T22:53:13.345Z,81.84
2022-08-19T22:58:45.078Z,81.78
2022-08-19T23:04:16.886Z,82.09
2022-08-19T23:09:48.595Z,82.41
2022-08-19T23:15:20.543Z,82.84
2022-08-19T23:20:52.130Z,83.49
2022-08-19T23:26:23.832Z,83.96
2022-08-19T23:31:55.566Z,83.69
2022-08-19T23:37:31.794Z,84.22
2022-08-19T23:43:09.735Z,84.54
2022-08-19T23:48:35.089Z,84.79
2022-08-19T23:54:06.866Z,85.11
2022-08-19T23:59:38.549Z,85.38
